Time;durP1;ratioP1;P1;durP2;ratioP2;P2;SDS_P1;SDS_P2;PMS_P1;PMS_P2;Temp;Humidity;BMP_temperature;BMP_pressure;BME280_temperature;BME280_humidity;BME280_pressure;Samples;Min_cycle;Max_cycle;Signal;HPM_P1;HPM_P2
2023/07/01 00:00:07;;;;;;;5.90;3.35;;;;;;;16.90;72.52;97734.63;5061168;28;20024;-71
2023/07/01 00:02:33;;;;;;;5.03;3.47;;;;;;;17.04;71.35;97730.03;5067246;28;20069;-72
2023/07/01 00:04:59;;;;;;;6.30;3.70;;;;;;;17.07;71.66;97728.63;5051368;28;20463;-72
2023/07/01 00:07:24;;;;;;;4.72;3.30;;;;;;;17.02;71.66;97731.44;5050189;28;20063;-72
2023/07/01 00:09:50;;;;;;;6.10;3.67;;;;;;;17.05;71.60;97731.69;5052379;28;20493;-73
2023/07/01 00:12:15;;;;;;;6.90;3.10;;;;;;;16.83;71.77;97731.47;5064692;28;20032;-73
2023/07/01 00:14:40;;;;;;;4.15;2.80;;;;;;;16.25;74.61;97730.94;5069946;28;20097;-73
2023/07/01 00:17:11;;;;;;;6.28;3.20;;;;;;;16.07;74.44;97734.44;5055619;28;20033;-74
2023/07/01 00:19:36;;;;;;;3.85;2.45;;;;;;;15.98;75.61;97738.06;5058307;28;20032;-73
2023/07/01 00:22:02;;;;;;;2.55;2.03;;;;;;;16.04;74.59;97737.72;5069970;28;20043;-73
2023/07/01 00:24:28;;;;;;;3.90;2.30;;;;;;;16.00;74.87;97731.25;5057618;28;20040;-72
2023/07/01 00:26:53;;;;;;;3.10;1.88;;;;;;;16.00;74.96;97739.41;5057946;28;20540;-72
2023/07/01 00:29:18;;;;;;;3.10;2.10;;;;;;;16.02;74.36;97717.38;5062077;28;20043;-72
2023/07/01 00:31:44;;;;;;;3.08;2.10;;;;;;;16.21;74.01;97724.47;5050656;28;20075;-72
2023/07/01 00:34:09;;;;;;;3.20;1.60;;;;;;;16.23;73.61;97724.97;5069780;28;20028;-72
2023/07/01 00:36:35;;;;;;;5.05;2.22;;;;;;;16.55;72.11;97719.66;5050535;28;20471;-72
2023/07/01 00:39:03;;;;;;;4.95;2.40;;;;;;;16.53;72.09;97718.34;5073026;28;20037;-71
2023/07/01 00:41:29;;;;;;;8.38;4.18;;;;;;;16.76;71.53;97716.63;5055745;28;20082;-72
2023/07/01 00:43:55;;;;;;;7.35;3.15;;;;;;;16.56;72.89;97718.56;5061929;28;20036;-72
2023/07/01 00:46:21;;;;;;;4.50;2.92;;;;;;;16.06;74.23;97724.66;5059732;28;20056;-72
2023/07/01 00:48:47;;;;;;;5.10;2.75;;;;;;;16.11;73.87;97716.44;5065346;28;20032;-72
2023/07/01 00:51:12;;;;;;;4.25;2.80;;;;;;;16.18;73.51;97714.16;5051486;28;20024;-72
2023/07/01 00:53:39;;;;;;;5.35;3.17;;;;;;;16.24;73.90;97718.44;5053247;28;20048;-72
2023/07/01 00:56:05;;;;;;;4.63;3.10;;;;;;;16.55;73.42;97710.69;5042144;28;20021;-72
2023/07/01 00:58:32;;;;;;;4.85;3.60;;;;;;;16.71;72.62;97708.56;5053304;28;20104;-72
2023/07/01 01:01:00;;;;;;;4.53;2.97;;;;;;;16.97;72.13;97707.03;5036686;28;20539;-72
2023/07/01 01:03:43;;;;;;;4.28;3.20;;;;;;;16.77;72.87;97701.94;5053187;28;20037;-72
2023/07/01 01:06:08;;;;;;;4.43;3.15;;;;;;;16.72;72.98;97696.56;5053391;28;20499;-74
2023/07/01 01:08:46;;;;;;;5.68;3.70;;;;;;;16.42;73.73;97697.81;5065270;28;20050;-74
2023/07/01 01:11:43;;;;;;;5.07;3.42;;;;;;;16.43;74.50;97686.63;5053769;28;20040;-73
2023/07/01 01:14:11;;;;;;;5.32;4.25;;;;;;;16.35;75.10;97678.34;5072638;28;20037;-74
2023/07/01 01:16:38;;;;;;;4.82;3.63;;;;;;;16.31;75.10;97677.31;5073181;28;20051;-74
2023/07/01 01:19:10;;;;;;;5.18;3.58;;;;;;;15.88;77.26;97681.97;5059555;28;20075;-74
2023/07/01 01:21:36;;;;;;;4.20;3.33;;;;;;;16.12;75.46;97680.03;5052974;28;20037;-73
2023/07/01 01:24:05;;;;;;;4.75;1.98;;;;;;;16.44;74.60;97693.69;5052710;28;20544;-73
2023/07/01 01:26:34;;;;;;;4.15;1.65;;;;;;;15.50;76.13;97699.25;5064394;28;20043;-73
2023/07/01 01:29:00;;;;;;;4.32;1.70;;;;;;;15.68;75.59;97695.81;5059591;28;20016;-73
2023/07/01 01:31:28;;;;;;;4.28;2.53;;;;;;;15.01;77.07;97702.94;5075060;28;20494;-73
2023/07/01 01:33:54;;;;;;;3.67;1.45;;;;;;;15.16;76.09;97691.97;5071247;28;20028;-74
2023/07/01 01:36:53;;;;;;;2.40;2.17;;;;;;;15.43;74.73;97685.16;5069757;28;20028;-73
2023/07/01 01:39:23;;;;;;;4.07;1.98;;;;;;;16.01;73.33;97689.41;5039221;28;20040;-73
2023/07/01 01:41:52;;;;;;;3.67;1.83;;;;;;;16.05;73.39;97687.72;5049419;28;20037;-73
2023/07/01 01:44:25;;;;;;;2.90;1.90;;;;;;;15.71;74.99;97689.78;5063695;28;20020;-73
2023/07/01 01:46:50;;;;;;;4.32;2.00;;;;;;;15.76;73.02;97692.44;5053262;28;20051;-74
2023/07/01 01:49:16;;;;;;;4.13;2.40;;;;;;;15.54;74.64;97689.44;5053641;28;20029;-74
2023/07/01 01:51:42;;;;;;;3.70;2.28;;;;;;;15.19;76.63;97694.09;5069470;28;20427;-74
2023/07/01 01:54:09;;;;;;;11.25;2.03;;;;;;;14.96;76.22;97704.91;5054151;28;20078;-74
2023/07/01 01:56:36;;;;;;;9.52;2.10;;;;;;;14.77;77.43;97703.97;5065696;28;20029;-73
2023/07/01 01:59:02;;;;;;;4.05;2.15;;;;;;;14.47;78.30;97694.97;5035640;28;20160;-73
2023/07/01 02:01:27;;;;;;;3.78;2.00;;;;;;;14.96;75.59;97702.97;5035161;28;20075;-74
2023/07/01 02:03:53;;;;;;;4.53;2.72;;;;;;;14.60;77.44;97701.66;5052922;28;20509;-76
2023/07/01 02:06:18;;;;;;;4.20;3.00;;;;;;;15.16;74.89;97697.41;5053024;28;20039;-76
2023/07/01 02:08:43;;;;;;;2.92;2.20;;;;;;;15.34;73.29;97700.47;5035503;28;20108;-76
2023/07/01 02:11:09;;;;;;;4.15;2.00;;;;;;;15.41;73.53;97695.50;5052090;28;20037;-72
2023/07/01 02:13:34;;;;;;;4.00;2.50;;;;;;;14.92;75.68;97696.53;5063699;28;20107;-74
2023/07/01 02:16:00;;;;;;;4.80;2.67;;;;;;;14.40;78.25;97690.94;5055051;28;20105;-74
2023/07/01 02:18:25;;;;;;;4.20;3.00;;;;;;;14.88;76.39;97690.06;5055161;28;20135;-73
2023/07/01 02:20:50;;;;;;;3.47;2.60;;;;;;;15.04;75.85;97691.53;5071855;28;20049;-74
2023/07/01 02:23:16;;;;;;;5.10;3.38;;;;;;;15.04;75.35;97686.13;5054967;28;20027;-74
2023/07/01 02:25:42;;;;;;;4.55;2.95;;;;;;;15.12;75.79;97688.19;5052935;28;20036;-73
2023/07/01 02:28:07;;;;;;;5.00;3.83;;;;;;;15.24;75.05;97683.19;5035163;28;20070;-73
2023/07/01 02:30:34;;;;;;;5.78;3.72;;;;;;;15.26;75.57;97676.69;5033438;28;20123;-73
2023/07/01 02:33:00;;;;;;;5.80;4.43;;;;;;;14.87;77.23;97674.88;5059401;28;20028;-73
2023/07/01 02:35:25;;;;;;;4.00;3.28;;;;;;;14.48;78.36;97679.53;5033719;28;20103;-72
2023/07/01 02:37:50;;;;;;;6.38;3.25;;;;;;;14.31;79.26;97676.38;5051376;28;20075;-74
2023/07/01 02:40:16;;;;;;;7.90;3.80;;;;;;;13.94;80.65;97679.53;5036979;28;20494;-75
2023/07/01 02:42:42;;;;;;;4.55;2.88;;;;;;;13.99;79.80;97682.22;5054456;28;20033;-74
2023/07/01 02:45:08;;;;;;;7.10;3.53;;;;;;;14.04;79.57;97676.78;5036394;28;20037;-75
2023/07/01 02:47:33;;;;;;;281.33;28.92;;;;;;;14.35;78.01;97677.47;5067106;28;20025;-75
2023/07/01 02:49:58;;;;;;;515.28;41.53;;;;;;;14.53;78.23;97666.75;5067974;28;20379;-74
2023/07/01 02:52:24;;;;;;;18.55;17.38;;;;;;;14.63;77.38;97668.59;5042722;28;20043;-74
2023/07/01 02:54:49;;;;;;;51.85;9.98;;;;;;;14.78;77.11;97684.72;5054531;28;20119;-74
2023/07/01 02:57:15;;;;;;;34.05;10.43;;;;;;;14.58;77.98;97684.88;5071164;28;20059;-74
2023/07/01 02:59:40;;;;;;;14.60;11.80;;;;;;;14.75;76.76;97679.84;5072429;28;20032;-73
2023/07/01 03:02:06;;;;;;;37.88;14.70;;;;;;;14.67;77.25;97680.47;5037791;28;20103;-72
2023/07/01 03:04:35;;;;;;;14.98;8.45;;;;;;;14.83;76.39;97683.84;5057516;28;20040;-73
2023/07/01 03:07:01;;;;;;;31.13;28.65;;;;;;;14.30;78.10;97685.59;5037907;28;20432;-74
2023/07/01 03:09:27;;;;;;;15.88;8.52;;;;;;;14.28;77.76;97685.06;5036235;28;20487;-72
2023/07/01 03:11:53;;;;;;;15.63;8.65;;;;;;;14.20;78.32;97685.63;5054512;28;20016;-73
2023/07/01 03:14:19;;;;;;;13.13;9.82;;;;;;;14.29;78.05;97683.94;5035820;28;20045;-74
2023/07/01 03:16:44;;;;;;;12.18;8.85;;;;;;;14.88;75.77;97679.22;5062478;28;20029;-74
2023/07/01 03:19:10;;;;;;;8.65;6.90;;;;;;;14.81;74.69;97686.88;5050944;28;20045;-74
2023/07/01 03:21:36;;;;;;;9.63;7.20;;;;;;;14.75;74.93;97681.78;5045861;28;20021;-74
2023/07/01 03:24:02;;;;;;;22.67;20.75;;;;;;;14.80;74.92;97684.41;5057117;28;20502;-73
2023/07/01 03:26:27;;;;;;;9.80;8.80;;;;;;;14.81;75.28;97678.72;5034310;28;20017;-74
2023/07/01 03:28:53;;;;;;;10.90;7.53;;;;;;;14.79;75.26;97683.63;5053982;28;20097;-74
2023/07/01 03:31:21;;;;;;;12.07;7.25;;;;;;;14.84;74.61;97683.56;5050999;28;20028;-73
2023/07/01 03:33:46;;;;;;;7.35;6.35;;;;;;;14.84;74.66;97686.28;5035823;28;20155;-74
2023/07/01 03:36:12;;;;;;;9.90;6.15;;;;;;;15.02;73.50;97682.88;5059189;28;20103;-73
2023/07/01 03:38:37;;;;;;;8.10;5.40;;;;;;;15.14;73.79;97677.88;5068573;28;20102;-72
2023/07/01 03:41:02;;;;;;;7.00;6.25;;;;;;;15.10;73.70;97690.38;5070640;28;20386;-74
2023/07/01 03:43:28;;;;;;;12.07;5.60;;;;;;;15.06;74.05;97678.50;5070402;28;20040;-74
2023/07/01 03:45:56;;;;;;;47.17;10.75;;;;;;;15.33;74.00;97677.16;5059260;28;20036;-72
2023/07/01 03:48:22;;;;;;;19.75;6.60;;;;;;;15.55;72.33;97672.84;5068893;28;20077;-74
2023/07/01 03:50:47;;;;;;;5.00;3.65;;;;;;;15.44;72.84;97673.22;5053931;28;20103;-75
2023/07/01 03:53:12;;;;;;;8.50;3.78;;;;;;;15.63;72.83;97676.84;5052302;28;20045;-75
2023/07/01 03:55:38;;;;;;;4.55;4.03;;;;;;;15.50;72.73;97672.91;5033845;28;20021;-74
2023/07/01 03:58:04;;;;;;;42.88;12.93;;;;;;;15.34;73.66;97676.03;5051742;28;20049;-75
2023/07/01 04:00:29;;;;;;;7.15;4.30;;;;;;;15.20;74.69;97679.44;5050555;28;20028;-75
2023/07/01 04:02:55;;;;;;;4.75;4.30;;;;;;;15.17;74.40;97684.63;5067982;28;20059;-75
2023/07/01 04:05:20;;;;;;;5.13;4.57;;;;;;;15.12;74.41;97680.06;5053328;28;20052;-74
2023/07/01 04:07:47;;;;;;;5.85;4.97;;;;;;;15.28;74.19;97679.91;5037063;28;20401;-74
2023/07/01 04:10:13;;;;;;;9.38;5.53;;;;;;;15.37;73.67;97678.19;5067642;28;20032;-74
2023/07/01 04:12:39;;;;;;;45.25;43.35;;;;;;;15.58;74.00;97680.44;5070177;28;20036;-72
2023/07/01 04:15:11;;;;;;;374.77;358.38;;;;;;;15.68;73.03;97679.50;5075584;28;20032;-73
2023/07/01 04:17:42;;;;;;;26.15;5.68;;;;;;;16.12;72.04;97680.03;5074288;28;20032;-72
2023/07/01 04:20:09;;;;;;;8.23;6.35;;;;;;;15.64;73.11;97673.03;5054594;28;20037;-72
2023/07/01 04:22:35;;;;;;;7.82;5.80;;;;;;;15.42;74.00;97675.44;5070044;28;20072;-72
2023/07/01 04:25:00;;;;;;;10.07;6.07;;;;;;;15.08;75.29;97676.31;5061520;28;20124;-74
2023/07/01 04:27:26;;;;;;;17.27;7.78;;;;;;;14.85;76.11;97679.78;5072073;28;20119;-74
2023/07/01 04:29:51;;;;;;;11.88;7.80;;;;;;;14.80;76.47;97676.28;5075357;28;20444;-74
2023/07/01 04:32:16;;;;;;;1999.90;999.90;;;;;;;14.70;77.31;97671.78;5057330;28;20020;-72
2023/07/01 04:34:42;;;;;;;27.88;25.30;;;;;;;14.98;76.82;97668.25;5033616;28;20471;-74
2023/07/01 04:37:08;;;;;;;723.25;682.72;;;;;;;14.31;79.05;97668.25;5067567;28;20108;-74
2023/07/01 04:39:33;;;;;;;26.27;24.15;;;;;;;14.81;77.13;97676.03;5066651;28;20398;-75
2023/07/01 04:41:58;;;;;;;71.47;67.55;;;;;;;15.08;76.80;97670.06;5034918;28;20391;-74
2023/07/01 04:44:24;;;;;;;14.52;12.52;;;;;;;14.85;77.22;97670.81;5055664;28;20121;-74
2023/07/01 04:46:52;;;;;;;13.68;9.65;;;;;;;14.86;77.95;97673.28;5040880;28;20525;-74
2023/07/01 04:49:17;;;;;;;13.70;8.27;;;;;;;15.17;76.80;97669.16;5075313;28;20090;-75
2023/07/01 04:51:43;;;;;;;621.72;593.45;;;;;;;15.54;75.91;97662.31;5056841;28;20509;-74
2023/07/01 04:54:08;;;;;;;17.67;13.95;;;;;;;15.80;75.37;97666.31;5056537;28;20028;-73
2023/07/01 04:56:35;;;;;;;11.32;10.40;;;;;;;16.20;74.78;97663.06;5067805;28;20115;-74
2023/07/01 04:59:00;;;;;;;24.92;17.33;;;;;;;16.40;74.49;97654.63;5028683;28;20041;-74
2023/07/01 05:01:26;;;;;;;15.82;14.48;;;;;;;16.17;75.38;97652.81;5071954;28;20027;-74
2023/07/01 05:03:52;;;;;;;10.30;8.93;;;;;;;16.22;76.20;97647.25;5073070;28;20119;-73
2023/07/01 05:06:17;;;;;;;10.68;8.05;;;;;;;15.98;77.20;97651.16;5074321;28;20016;-74
2023/07/01 05:08:42;;;;;;;18.55;17.08;;;;;;;16.14;77.64;97650.66;5061163;28;20037;-74
2023/07/01 05:11:08;;;;;;;81.53;76.55;;;;;;;15.82;78.43;97661.41;5050120;28;20025;-74
2023/07/01 05:13:33;;;;;;;44.55;41.80;;;;;;;15.79;78.94;97659.28;5048136;28;20430;-74
2023/07/01 05:15:58;;;;;;;123.47;117.40;;;;;;;15.90;79.05;97663.47;5054450;28;20074;-74
2023/07/01 05:18:24;;;;;;;119.68;114.32;;;;;;;16.46;77.49;97660.78;5053061;28;20037;-73
2023/07/01 05:20:49;;;;;;;23.75;18.67;;;;;;;16.90;75.19;97657.66;5050967;28;20033;-75
2023/07/01 05:23:15;;;;;;;10.52;6.15;;;;;;;16.67;77.08;97658.56;5061155;28;20407;-74
2023/07/01 05:25:40;;;;;;;8.95;6.90;;;;;;;17.04;76.24;97658.50;5046653;28;20028;-74
2023/07/01 05:28:05;;;;;;;7.85;5.88;;;;;;;17.21;76.07;97656.81;5056179;28;20028;-74
2023/07/01 05:30:31;;;;;;;9.38;7.55;;;;;;;17.18;77.00;97664.78;5051993;28;20387;-74
2023/07/01 05:32:57;;;;;;;760.85;722.53;;;;;;;17.14;76.98;97658.31;5062893;28;20044;-74
2023/07/01 05:35:22;;;;;;;142.35;41.78;;;;;;;17.32;77.69;97654.72;5055106;28;20028;-73
2023/07/01 05:37:47;;;;;;;10.13;6.97;;;;;;;17.54;76.70;97657.59;5053480;28;20041;-74
2023/07/01 05:40:13;;;;;;;9.23;7.28;;;;;;;17.55;78.21;97659.19;5057110;28;20052;-74
2023/07/01 05:42:38;;;;;;;8.32;6.28;;;;;;;17.74;76.11;97659.91;5055761;28;20403;-74
2023/07/01 05:45:05;;;;;;;8.10;7.40;;;;;;;17.73;76.79;97658.31;5055001;28;20379;-74
2023/07/01 05:47:31;;;;;;;87.25;11.18;;;;;;;18.02;75.93;97649.78;5046594;28;20064;-74
2023/07/01 05:49:56;;;;;;;1509.90;812.95;;;;;;;17.71;76.04;97652.34;5056187;28;20040;-75
2023/07/01 05:52:22;;;;;;;7.50;6.80;;;;;;;18.04;75.14;97649.50;5052538;28;20036;-74
2023/07/01 05:54:47;;;;;;;8.38;6.93;;;;;;;18.30;75.40;97653.25;5052218;28;20498;-74
2023/07/01 05:57:12;;;;;;;10.70;9.80;;;;;;;18.28;75.24;97660.94;5053633;28;20540;-74
2023/07/01 05:59:38;;;;;;;8.38;7.43;;;;;;;18.41;75.98;97655.44;5052318;28;20025;-74
2023/07/01 06:02:03;;;;;;;10.00;9.20;;;;;;;18.57;76.08;97654.03;5062647;28;20036;-72
2023/07/01 06:04:29;;;;;;;7.43;6.75;;;;;;;18.58;75.01;97654.81;5054662;28;20538;-75
2023/07/01 06:06:54;;;;;;;6.80;6.20;;;;;;;18.37;75.42;97648.19;5053414;28;20029;-74
2023/07/01 06:09:19;;;;;;;8.32;6.20;;;;;;;18.82;73.18;97643.59;5053232;28;20430;-74
2023/07/01 06:11:45;;;;;;;7.25;6.55;;;;;;;18.71;73.99;97648.50;5052069;28;20087;-74
2023/07/01 06:14:10;;;;;;;7.85;7.07;;;;;;;18.83;72.83;97646.03;5065152;28;20032;-75
2023/07/01 06:16:37;;;;;;;6.85;6.20;;;;;;;18.71;72.48;97645.78;5062752;28;20044;-75
2023/07/01 06:19:02;;;;;;;7.97;6.88;;;;;;;18.82;73.56;97649.88;5070036;28;20029;-74
2023/07/01 06:21:27;;;;;;;7.28;6.53;;;;;;;19.30;72.28;97639.06;5053076;28;20043;-75
2023/07/01 06:23:54;;;;;;;9.93;9.13;;;;;;;19.12;72.12;97637.34;5065182;28;20032;-75
2023/07/01 06:26:20;;;;;;;90.72;83.53;;;;;;;19.14;72.83;97633.19;5054578;28;20039;-74
2023/07/01 06:28:45;;;;;;;10.07;8.27;;;;;;;19.74;70.56;97632.69;5038117;28;20386;-75
2023/07/01 06:31:11;;;;;;;9.85;8.52;;;;;;;19.60;70.95;97632.00;5062295;28;20116;-75
2023/07/01 06:33:38;;;;;;;10.45;8.20;;;;;;;19.52;70.43;97619.09;5054517;28;20050;-75
2023/07/01 06:36:04;;;;;;;9.48;8.45;;;;;;;19.28;70.89;97623.00;5061446;28;20037;-74
2023/07/01 06:38:29;;;;;;;11.90;9.32;;;;;;;19.91;68.94;97624.50;5055390;28;20382;-74
2023/07/01 06:40:55;;;;;;;12.07;8.65;;;;;;;19.74;69.79;97622.53;5071533;28;20109;-75
2023/07/01 06:43:20;;;;;;;12.63;8.80;;;;;;;20.20;69.06;97613.81;5050919;28;20497;-74
2023/07/01 06:45:45;;;;;;;13.05;9.55;;;;;;;19.65;70.08;97627.19;5071157;28;20470;-74
2023/07/01 06:48:11;;;;;;;13.45;9.57;;;;;;;19.38;71.15;97618.41;5055834;28;20150;-74
2023/07/01 06:50:39;;;;;;;12.73;8.57;;;;;;;19.81;70.30;97616.63;5051380;28;20048;-74
2023/07/01 06:53:04;;;;;;;11.15;9.25;;;;;;;19.77;71.38;97621.91;5065789;28;20032;-74
2023/07/01 06:55:33;;;;;;;13.02;9.70;;;;;;;20.29;69.40;97624.75;5059357;28;20036;-74
2023/07/01 06:58:02;;;;;;;16.63;10.77;;;;;;;20.11;69.54;97607.53;5067537;28;20020;-74
2023/07/01 07:00:29;;;;;;;12.00;9.23;;;;;;;20.33;68.90;97612.88;5066666;28;20437;-74
2023/07/01 07:02:55;;;;;;;14.35;10.68;;;;;;;20.10;70.01;97603.16;5031918;28;20031;-74
2023/07/01 07:05:20;;;;;;;16.77;11.73;;;;;;;20.31;68.43;97604.19;5058976;28;20398;-74
2023/07/01 07:07:45;;;;;;;16.35;11.68;;;;;;;20.12;67.63;97606.38;5031321;28;20021;-74
2023/07/01 07:10:11;;;;;;;14.10;10.38;;;;;;;19.84;70.00;97616.78;5062018;28;20479;-74
2023/07/01 07:12:36;;;;;;;13.45;10.80;;;;;;;20.19;69.05;97612.19;5057207;28;20095;-74
2023/07/01 07:15:02;;;;;;;13.77;9.88;;;;;;;20.71;66.90;97601.25;5060222;28;20056;-75
2023/07/01 07:17:27;;;;;;;14.30;10.13;;;;;;;20.32;66.69;97611.28;5065439;28;20510;-74
2023/07/01 07:19:53;;;;;;;13.35;10.13;;;;;;;20.46;66.65;97600.97;5052051;28;20041;-74
2023/07/01 07:22:18;;;;;;;15.23;11.02;;;;;;;20.14;66.44;97615.06;5050727;28;20025;-74
2023/07/01 07:24:44;;;;;;;11.63;9.85;;;;;;;19.90;65.46;97614.72;5044165;28;20037;-74
2023/07/01 07:27:09;;;;;;;12.15;9.10;;;;;;;19.96;65.63;97602.50;5053629;28;20490;-74
2023/07/01 07:29:34;;;;;;;13.45;9.45;;;;;;;20.32;65.35;97594.84;5034098;28;20037;-74
2023/07/01 07:32:02;;;;;;;10.05;8.40;;;;;;;20.54;63.75;97596.59;5051744;28;20028;-74
2023/07/01 07:34:28;;;;;;;12.57;7.85;;;;;;;20.58;63.97;97592.91;5050322;28;20037;-73
2023/07/01 07:36:53;;;;;;;11.90;7.57;;;;;;;20.98;61.58;97589.94;5051563;28;20076;-74
2023/07/01 07:39:18;;;;;;;10.80;7.72;;;;;;;20.99;60.50;97586.06;5044570;28;20529;-74
2023/07/01 07:41:44;;;;;;;10.15;7.60;;;;;;;20.91;60.75;97584.16;5037140;28;20028;-73
2023/07/01 07:44:10;;;;;;;8.50;7.45;;;;;;;21.11;60.30;97597.19;5060877;28;20580;-75
2023/07/01 07:46:37;;;;;;;12.05;7.30;;;;;;;21.19;58.94;97597.13;5056494;28;20546;-74
2023/07/01 07:49:03;;;;;;;8.75;6.80;;;;;;;21.03;58.41;97589.75;5069993;28;20431;-74
2023/07/01 07:51:28;;;;;;;7.72;6.50;;;;;;;21.44;58.50;97587.22;5050214;28;20033;-74
2023/07/01 07:53:54;;;;;;;7.45;5.63;;;;;;;21.60;54.87;97588.28;5069990;28;20453;-74
2023/07/01 07:56:20;;;;;;;8.35;6.28;;;;;;;21.31;56.25;97588.22;5050477;28;20021;-75
2023/07/01 07:58:45;;;;;;;9.13;5.72;;;;;;;21.23;54.41;97589.09;5050279;28;20067;-74
2023/07/01 08:01:11;;;;;;;6.82;5.28;;;;;;;21.49;54.74;97584.31;5053331;28;20033;-73
2023/07/01 08:03:37;;;;;;;5.70;4.40;;;;;;;21.43;51.08;97576.56;5060278;28;20039;-74
2023/07/01 08:06:02;;;;;;;8.13;4.05;;;;;;;21.62;50.02;97583.25;5066747;28;20429;-74
2023/07/01 08:08:28;;;;;;;6.38;4.07;;;;;;;21.41;51.42;97576.91;5028394;28;20383;-74
2023/07/01 08:10:53;;;;;;;6.93;3.90;;;;;;;21.61;53.08;97578.91;5054688;28;20478;-74
2023/07/01 08:13:19;;;;;;;5.38;4.22;;;;;;;22.44;51.54;97571.59;5050914;28;20074;-75
2023/07/01 08:15:44;;;;;;;7.65;3.80;;;;;;;21.92;49.22;97562.16;5032922;28;20075;-75
2023/07/01 08:18:09;;;;;;;6.57;3.70;;;;;;;22.48;48.59;97571.69;5068574;28;20040;-75
2023/07/01 08:20:35;;;;;;;8.73;3.90;;;;;;;21.71;48.55;97570.31;5061271;28;20036;-74
2023/07/01 08:23:00;;;;;;;6.55;3.00;;;;;;;21.88;47.89;97553.78;5058267;28;20120;-74
2023/07/01 08:25:26;;;;;;;6.68;3.88;;;;;;;22.08;48.91;97551.41;5046317;28;20029;-74
2023/07/01 08:27:51;;;;;;;4.22;3.10;;;;;;;22.65;45.57;97544.13;5036560;28;20501;-74
2023/07/01 08:30:17;;;;;;;9.35;3.33;;;;;;;22.29;45.97;97546.69;5054902;28;20028;-75
2023/07/01 08:32:42;;;;;;;6.53;2.83;;;;;;;22.78;43.83;97548.50;5049859;28;20033;-74
2023/07/01 08:35:08;;;;;;;5.20;2.30;;;;;;;22.22;44.12;97546.44;5033178;28;20037;-75
2023/07/01 08:37:34;;;;;;;5.32;2.42;;;;;;;21.38;45.48;97550.16;5049940;28;20037;-75
2023/07/01 08:39:59;;;;;;;4.70;2.47;;;;;;;21.94;43.54;97546.97;5052501;28;20036;-75
2023/07/01 08:42:40;;;;;;;5.65;2.40;;;;;;;22.64;42.71;97548.00;5044076;28;20048;-75
2023/07/01 08:45:06;;;;;;;2.65;2.45;;;;;;;22.53;42.70;97547.59;5064671;28;20072;-75
2023/07/01 08:47:34;;;;;;;4.53;2.65;;;;;;;23.05;43.05;97542.41;5035983;28;20040;-75
2023/07/01 08:50:04;;;;;;;5.82;3.03;;;;;;;22.62;42.53;97544.81;5063283;28;20483;-75
2023/07/01 08:52:52;;;;;;;4.68;2.58;;;;;;;22.31;42.33;97538.94;5061872;28;20075;-74
2023/07/01 08:55:17;;;;;;;3.13;2.33;;;;;;;22.65;42.38;97535.91;5050608;28;20044;-75
2023/07/01 08:57:43;;;;;;;4.35;2.72;;;;;;;22.42;44.38;97540.13;5051292;28;20392;-75
2023/07/01 09:00:10;;;;;;;4.50;2.70;;;;;;;22.43;42.33;97534.28;5064817;28;20071;-74
2023/07/01 09:02:36;;;;;;;5.57;2.80;;;;;;;22.96;42.80;97522.47;5036527;28;20441;-74
2023/07/01 09:05:02;;;;;;;4.75;3.10;;;;;;;22.95;41.46;97520.88;5053173;28;20085;-75
2023/07/01 09:07:29;;;;;;;5.10;2.53;;;;;;;22.82;41.82;97522.00;5054022;28;20028;-75
2023/07/01 09:09:55;;;;;;;3.53;2.75;;;;;;;23.03;41.21;97533.72;5061635;28;20036;-75
2023/07/01 09:12:25;;;;;;;4.30;2.17;;;;;;;23.80;41.54;97518.97;5067942;28;20025;-74
2023/07/01 09:15:00;;;;;;;4.30;2.58;;;;;;;23.50;39.01;97514.06;5069093;28;20031;-75
2023/07/01 09:17:33;;;;;;;3.70;2.05;;;;;;;23.16;40.36;97510.59;5065651;28;20166;-75
2023/07/01 09:20:04;;;;;;;3.17;2.17;;;;;;;22.81;40.18;97509.41;5068442;28;20107;-75
2023/07/01 09:22:30;;;;;;;4.50;2.45;;;;;;;23.04;39.33;97507.81;5070193;28;20036;-74
2023/07/01 09:24:56;;;;;;;3.70;1.95;;;;;;;24.04;39.42;97512.56;5063004;28;20031;-74
2023/07/01 09:27:22;;;;;;;5.25;2.25;;;;;;;24.05;40.42;97503.19;5069008;28;20021;-75
2023/07/01 09:29:47;;;;;;;2.50;2.13;;;;;;;23.82;38.40;97493.84;5071518;28;20417;-74
2023/07/01 09:32:31;;;;;;;5.25;2.00;;;;;;;23.85;39.80;97506.91;5034844;28;20423;-75
2023/07/01 09:34:57;;;;;;;3.25;1.85;;;;;;;24.08;39.74;97508.03;5056323;28;20108;-75
2023/07/01 09:37:26;;;;;;;5.13;2.05;;;;;;;23.79;39.92;97500.84;5044481;28;20478;-75
2023/07/01 09:39:52;;;;;;;5.28;2.20;;;;;;;24.70;37.91;97486.19;5070752;28;20033;-75
2023/07/01 09:42:21;;;;;;;2.80;2.00;;;;;;;23.44;38.81;97498.94;5023119;28;20024;-74
2023/07/01 09:45:08;;;;;;;5.93;2.00;;;;;;;23.35;40.25;97485.31;5038686;28;20500;-74
2023/07/01 09:47:34;;;;;;;5.20;2.28;;;;;;;22.94;40.56;97496.50;5037074;28;20575;-74
2023/07/01 09:50:01;;;;;;;3.40;1.98;;;;;;;23.44;39.31;97493.44;5034426;28;20104;-74
2023/07/01 09:52:45;;;;;;;3.00;2.10;;;;;;;23.45;38.53;97489.56;5051340;28;20037;-74
2023/07/01 09:55:10;;;;;;;8.43;1.88;;;;;;;23.99;38.64;97501.84;5052332;28;20043;-74
2023/07/01 09:57:36;;;;;;;3.88;2.00;;;;;;;23.88;37.49;97481.44;5066082;28;20387;-75
2023/07/01 10:00:03;;;;;;;3.85;1.80;;;;;;;23.67;37.75;97494.56;5073718;28;20044;-74
2023/07/01 10:02:35;;;;;;;3.97;1.95;;;;;;;23.26;38.88;97477.16;5071776;28;20115;-74
2023/07/01 10:05:01;;;;;;;6.53;2.22;;;;;;;23.59;39.04;97473.50;5055447;28;20166;-74
2023/07/01 10:07:26;;;;;;;5.78;2.10;;;;;;;23.12;39.21;97476.72;5072140;28;20020;-74
2023/07/01 10:09:52;;;;;;;4.53;2.03;;;;;;;23.04;39.54;97483.09;5071448;28;20508;-75
2023/07/01 10:12:19;;;;;;;5.22;2.10;;;;;;;23.79;40.50;97483.53;5071616;28;20035;-75
2023/07/01 10:14:50;;;;;;;5.22;2.15;;;;;;;22.90;40.00;97474.41;5047100;28;20036;-73
2023/07/01 10:17:16;;;;;;;2.47;1.75;;;;;;;22.51;41.32;97477.72;5067322;28;20091;-74
2023/07/01 10:19:46;;;;;;;4.38;1.95;;;;;;;22.26;40.21;97465.06;5051920;28;20036;-74
2023/07/01 10:22:26;;;;;;;6.65;2.28;;;;;;;23.07;39.92;97463.19;5065331;28;20045;-75
2023/07/01 10:25:03;;;;;;;3.58;2.28;;;;;;;23.79;39.04;97456.03;5043341;28;20083;-74
2023/07/01 10:27:41;;;;;;;5.97;2.45;;;;;;;23.69;38.21;97453.75;5071476;28;20032;-74
2023/07/01 10:30:07;;;;;;;3.30;2.03;;;;;;;24.77;39.03;97457.25;5059422;28;20062;-74
2023/07/01 10:32:33;;;;;;;4.80;2.10;;;;;;;24.57;36.18;97454.38;5063796;28;20078;-75
2023/07/01 10:34:58;;;;;;;5.13;2.20;;;;;;;24.63;37.97;97458.44;5065804;28;20032;-74
2023/07/01 10:37:27;;;;;;;7.03;2.22;;;;;;;24.89;38.14;97452.47;5064114;28;20036;-74
2023/07/01 10:39:54;;;;;;;3.45;1.85;;;;;;;23.82;36.97;97467.16;5064849;28;20033;-75
2023/07/01 10:42:36;;;;;;;4.18;2.25;;;;;;;23.86;36.91;97445.25;5056876;28;20434;-74
2023/07/01 10:45:11;;;;;;;6.40;2.38;;;;;;;25.12;37.17;97441.59;5035622;28;20445;-74
2023/07/01 10:47:43;;;;;;;3.45;2.05;;;;;;;24.27;37.45;97436.63;5059047;28;20029;-75
2023/07/01 10:50:10;;;;;;;3.15;2.22;;;;;;;24.55;36.46;97442.88;5072104;28;20437;-75
2023/07/01 10:52:55;;;;;;;5.03;2.47;;;;;;;24.93;37.04;97431.31;5054425;28;20028;-74
2023/07/01 10:55:49;;;;;;;4.75;2.08;;;;;;;25.31;36.11;97427.88;5052315;28;20495;-74
2023/07/01 10:58:21;;;;;;;3.80;2.45;;;;;;;24.05;36.91;97435.22;5051278;28;20045;-75
2023/07/01 11:01:05;;;;;;;4.28;2.40;;;;;;;25.07;35.65;97414.31;5051228;28;20170;-75
2023/07/01 11:03:36;;;;;;;9.18;2.67;;;;;;;24.60;36.67;97437.13;5050966;28;20033;-74
2023/07/01 11:06:10;;;;;;;4.68;2.22;;;;;;;24.87;34.40;97418.16;5052157;28;20093;-72
2023/07/01 11:08:50;;;;;;;3.67;2.25;;;;;;;24.54;35.02;97410.22;5062245;28;20043;-74
2023/07/01 11:11:20;;;;;;;4.40;2.53;;;;;;;25.52;35.50;97411.06;5051182;28;20123;-74
2023/07/01 11:14:01;;;;;;;7.53;2.70;;;;;;;25.43;34.41;97402.97;5033943;28;20090;-74
2023/07/01 11:16:28;;;;;;;3.20;2.50;;;;;;;24.21;34.94;97420.72;5050842;28;20033;-74
2023/07/01 11:18:55;;;;;;;9.20;2.38;;;;;;;24.94;34.03;97402.59;5047612;28;20474;-74
2023/07/01 11:21:26;;;;;;;5.40;2.45;;;;;;;25.20;34.34;97399.28;5051864;28;20033;-74
2023/07/01 11:23:56;;;;;;;6.43;2.80;;;;;;;24.87;33.34;97407.13;5033828;28;20047;-74
2023/07/01 11:26:32;;;;;;;7.70;3.00;;;;;;;25.63;33.29;97384.50;5051216;28;20033;-74
2023/07/01 11:28:57;;;;;;;6.82;2.60;;;;;;;25.87;33.47;97387.78;5034110;28;20506;-74